sensor_id;sensor_type;location;lat;lon;timestamp;pressure;altitude;pressure_sealevel;temperature
68952;BMP180;56000;51.146;17.112;2024-03-06T00:00:32;100528.00;;;5.70
68952;BMP180;56000;51.146;17.112;2024-03-06T00:03:23;100530.80;;;5.60
68952;BMP180;56000;51.146;17.112;2024-03-06T00:05:53;100529.60;;;5.60
68952;BMP180;56000;51.146;17.112;2024-03-06T00:08:21;100530.60;;;5.50
68952;BMP180;56000;51.146;17.112;2024-03-06T00:10:50;100528.00;;;5.50
68952;BMP180;56000;51.146;17.112;2024-03-06T00:13:19;100534.80;;;5.50
68952;BMP180;56000;51.146;17.112;2024-03-06T00:15:48;100534.40;;;5.50
68952;BMP180;56000;51.146;17.112;2024-03-06T00:18:16;100538.80;;;5.50
68952;BMP180;56000;51.146;17.112;2024-03-06T00:20:45;100536.60;;;5.50
68952;BMP180;56000;51.146;17.112;2024-03-06T00:23:14;100539.80;;;5.50
68952;BMP180;56000;51.146;17.112;2024-03-06T00:25:42;100538.80;;;5.50
68952;BMP180;56000;51.146;17.112;2024-03-06T00:28:11;100545.00;;;5.50
68952;BMP180;56000;51.146;17.112;2024-03-06T00:30:39;100546.40;;;5.50
68952;BMP180;56000;51.146;17.112;2024-03-06T00:33:08;100549.00;;;5.40
68952;BMP180;56000;51.146;17.112;2024-03-06T00:35:36;100547.40;;;5.40
68952;BMP180;56000;51.146;17.112;2024-03-06T00:38:05;100547.60;;;5.42
68952;BMP180;56000;51.146;17.112;2024-03-06T00:40:34;100543.00;;;5.48
68952;BMP180;56000;51.146;17.112;2024-03-06T00:43:02;100541.00;;;5.40
68952;BMP180;56000;51.146;17.112;2024-03-06T00:45:31;100536.00;;;5.40
68952;BMP180;56000;51.146;17.112;2024-03-06T00:47:59;100540.60;;;5.40
68952;BMP180;56000;51.146;17.112;2024-03-06T00:50:28;100546.20;;;5.40
68952;BMP180;56000;51.146;17.112;2024-03-06T00:52:57;100545.00;;;5.42
68952;BMP180;56000;51.146;17.112;2024-03-06T00:55:25;100548.80;;;5.50
68952;BMP180;56000;51.146;17.112;2024-03-06T00:57:53;100553.60;;;5.40
68952;BMP180;56000;51.146;17.112;2024-03-06T01:00:22;100550.40;;;5.40
68952;BMP180;56000;51.146;17.112;2024-03-06T01:02:52;100554.60;;;5.40
68952;BMP180;56000;51.146;17.112;2024-03-06T01:05:21;100554.20;;;5.40
68952;BMP180;56000;51.146;17.112;2024-03-06T01:07:51;100552.40;;;5.40
68952;BMP180;56000;51.146;17.112;2024-03-06T01:10:23;100555.20;;;5.40
68952;BMP180;56000;51.146;17.112;2024-03-06T01:12:52;100557.00;;;5.32
68952;BMP180;56000;51.146;17.112;2024-03-06T01:15:20;100562.40;;;5.32
68952;BMP180;56000;51.146;17.112;2024-03-06T01:17:49;100557.40;;;5.40
68952;BMP180;56000;51.146;17.112;2024-03-06T01:20:17;100557.00;;;5.36
68952;BMP180;56000;51.146;17.112;2024-03-06T01:22:46;100559.00;;;5.40
68952;BMP180;56000;51.146;17.112;2024-03-06T01:25:15;100565.00;;;5.40
68952;BMP180;56000;51.146;17.112;2024-03-06T01:27:43;100565.00;;;5.40
68952;BMP180;56000;51.146;17.112;2024-03-06T01:30:12;100569.80;;;5.40
68952;BMP180;56000;51.146;17.112;2024-03-06T01:32:41;100571.40;;;5.30
68952;BMP180;56000;51.146;17.112;2024-03-06T01:35:10;100569.20;;;5.30
68952;BMP180;56000;51.146;17.112;2024-03-06T01:37:38;100575.00;;;5.22
68952;BMP180;56000;51.146;17.112;2024-03-06T01:40:09;100575.60;;;5.20
68952;BMP180;56000;51.146;17.112;2024-03-06T01:42:39;100577.80;;;5.12
68952;BMP180;56000;51.146;17.112;2024-03-06T01:45:09;100580.20;;;5.10
68952;BMP180;56000;51.146;17.112;2024-03-06T01:47:38;100582.20;;;5.10
68952;BMP180;56000;51.146;17.112;2024-03-06T01:50:08;100583.00;;;5.08
68952;BMP180;56000;51.146;17.112;2024-03-06T01:52:38;100578.00;;;5.10
68952;BMP180;56000;51.146;17.112;2024-03-06T01:55:08;100585.20;;;5.08
68952;BMP180;56000;51.146;17.112;2024-03-06T01:57:37;100583.40;;;5.02
68952;BMP180;56000;51.146;17.112;2024-03-06T02:00:08;100580.40;;;5.00
68952;BMP180;56000;51.146;17.112;2024-03-06T02:02:42;100576.40;;;5.00
68952;BMP180;56000;51.146;17.112;2024-03-06T02:05:11;100578.20;;;5.00
68952;BMP180;56000;51.146;17.112;2024-03-06T02:07:40;100584.20;;;4.94
68952;BMP180;56000;51.146;17.112;2024-03-06T02:10:10;100581.40;;;4.90
68952;BMP180;56000;51.146;17.112;2024-03-06T02:12:40;100583.80;;;4.90
68952;BMP180;56000;51.146;17.112;2024-03-06T02:15:09;100572.80;;;4.76
68952;BMP180;56000;51.146;17.112;2024-03-06T02:17:41;100569.20;;;4.70
68952;BMP180;56000;51.146;17.112;2024-03-06T02:20:11;100568.00;;;4.60
68952;BMP180;56000;51.146;17.112;2024-03-06T02:22:40;100567.60;;;4.60
68952;BMP180;56000;51.146;17.112;2024-03-06T02:25:09;100571.00;;;4.50
68952;BMP180;56000;51.146;17.112;2024-03-06T02:27:38;100571.20;;;4.40
68952;BMP180;56000;51.146;17.112;2024-03-06T02:30:08;100573.40;;;4.28
68952;BMP180;56000;51.146;17.112;2024-03-06T02:32:37;100580.20;;;4.10
68952;BMP180;56000;51.146;17.112;2024-03-06T02:35:06;100581.20;;;4.00
68952;BMP180;56000;51.146;17.112;2024-03-06T02:37:36;100579.00;;;3.90
68952;BMP180;56000;51.146;17.112;2024-03-06T02:40:07;100578.80;;;3.80
68952;BMP180;56000;51.146;17.112;2024-03-06T02:42:37;100576.00;;;3.70
68952;BMP180;56000;51.146;17.112;2024-03-06T02:45:08;100576.20;;;3.66
68952;BMP180;56000;51.146;17.112;2024-03-06T02:47:36;100575.20;;;3.60
68952;BMP180;56000;51.146;17.112;2024-03-06T02:50:07;100579.40;;;3.50
68952;BMP180;56000;51.146;17.112;2024-03-06T02:52:36;100582.80;;;3.44
68952;BMP180;56000;51.146;17.112;2024-03-06T02:55:06;100583.20;;;3.40
68952;BMP180;56000;51.146;17.112;2024-03-06T02:57:35;100590.20;;;3.30
68952;BMP180;56000;51.146;17.112;2024-03-06T03:00:04;100593.80;;;3.24
68952;BMP180;56000;51.146;17.112;2024-03-06T03:02:36;100593.60;;;3.18
68952;BMP180;56000;51.146;17.112;2024-03-06T03:05:06;100597.40;;;3.10
68952;BMP180;56000;51.146;17.112;2024-03-06T03:07:35;100599.60;;;3.00
68952;BMP180;56000;51.146;17.112;2024-03-06T03:10:04;100602.00;;;2.92
68952;BMP180;56000;51.146;17.112;2024-03-06T03:12:33;100601.60;;;2.90
68952;BMP180;56000;51.146;17.112;2024-03-06T03:15:02;100603.40;;;2.80
68952;BMP180;56000;51.146;17.112;2024-03-06T03:17:31;100607.00;;;2.80
68952;BMP180;56000;51.146;17.112;2024-03-06T03:20:00;100610.40;;;2.70
68952;BMP180;56000;51.146;17.112;2024-03-06T03:22:37;100608.60;;;2.70
68952;BMP180;56000;51.146;17.112;2024-03-06T03:25:08;100606.60;;;2.60
68952;BMP180;56000;51.146;17.112;2024-03-06T03:27:37;100609.20;;;2.60
68952;BMP180;56000;51.146;17.112;2024-03-06T03:30:08;100610.40;;;2.60
68952;BMP180;56000;51.146;17.112;2024-03-06T03:32:37;100608.40;;;2.50
68952;BMP180;56000;51.146;17.112;2024-03-06T03:35:07;100614.00;;;2.50
68952;BMP180;56000;51.146;17.112;2024-03-06T03:37:35;100614.40;;;2.50
68952;BMP180;56000;51.146;17.112;2024-03-06T03:40:06;100621.80;;;2.50
68952;BMP180;56000;51.146;17.112;2024-03-06T03:42:35;100624.60;;;2.40
68952;BMP180;56000;51.146;17.112;2024-03-06T03:45:05;100632.20;;;2.40
68952;BMP180;56000;51.146;17.112;2024-03-06T03:47:34;100633.20;;;2.30
68952;BMP180;56000;51.146;17.112;2024-03-06T03:50:02;100629.20;;;2.30
68952;BMP180;56000;51.146;17.112;2024-03-06T03:52:38;100627.00;;;2.30
68952;BMP180;56000;51.146;17.112;2024-03-06T03:55:09;100629.80;;;2.20
68952;BMP180;56000;51.146;17.112;2024-03-06T03:57:39;100627.60;;;2.20
68952;BMP180;56000;51.146;17.112;2024-03-06T04:00:11;100635.40;;;2.20
68952;BMP180;56000;51.146;17.112;2024-03-06T04:02:40;100633.60;;;2.14
68952;BMP180;56000;51.146;17.112;2024-03-06T04:05:09;100636.20;;;2.10
68952;BMP180;56000;51.146;17.112;2024-03-06T04:07:39;100636.60;;;2.08
68952;BMP180;56000;51.146;17.112;2024-03-06T04:10:09;100638.00;;;2.00
68952;BMP180;56000;51.146;17.112;2024-03-06T04:12:39;100638.00;;;2.00
68952;BMP180;56000;51.146;17.112;2024-03-06T04:15:09;100641.00;;;2.00
68952;BMP180;56000;51.146;17.112;2024-03-06T04:17:37;100642.40;;;2.00
68952;BMP180;56000;51.146;17.112;2024-03-06T04:20:06;100642.40;;;1.90
68952;BMP180;56000;51.146;17.112;2024-03-06T04:22:35;100642.40;;;1.90
68952;BMP180;56000;51.146;17.112;2024-03-06T04:25:05;100645.80;;;1.80
68952;BMP180;56000;51.146;17.112;2024-03-06T04:27:33;100650.00;;;1.80
68952;BMP180;56000;51.146;17.112;2024-03-06T04:30:02;100649.60;;;1.70
68952;BMP180;56000;51.146;17.112;2024-03-06T04:32:31;100651.60;;;1.70
68952;BMP180;56000;51.146;17.112;2024-03-06T04:35:00;100652.20;;;1.70
68952;BMP180;56000;51.146;17.112;2024-03-06T04:37:29;100652.40;;;1.62
68952;BMP180;56000;51.146;17.112;2024-03-06T04:39:59;100655.60;;;1.60
68952;BMP180;56000;51.146;17.112;2024-03-06T04:42:28;100657.00;;;1.60
68952;BMP180;56000;51.146;17.112;2024-03-06T04:44:56;100658.60;;;1.50
68952;BMP180;56000;51.146;17.112;2024-03-06T04:47:25;100664.80;;;1.50
68952;BMP180;56000;51.146;17.112;2024-03-06T04:49:57;100661.40;;;1.48
68952;BMP180;56000;51.146;17.112;2024-03-06T04:52:26;100664.20;;;1.40
68952;BMP180;56000;51.146;17.112;2024-03-06T04:54:55;100669.40;;;1.40
68952;BMP180;56000;51.146;17.112;2024-03-06T04:57:23;100666.80;;;1.40
68952;BMP180;56000;51.146;17.112;2024-03-06T04:59:51;100671.20;;;1.40
68952;BMP180;56000;51.146;17.112;2024-03-06T05:02:20;100675.00;;;1.32
68952;BMP180;56000;51.146;17.112;2024-03-06T05:04:49;100679.60;;;1.30
68952;BMP180;56000;51.146;17.112;2024-03-06T05:07:35;100676.40;;;1.30
68952;BMP180;56000;51.146;17.112;2024-03-06T05:10:21;100681.00;;;1.38
68952;BMP180;56000;51.146;17.112;2024-03-06T05:13:08;100682.80;;;1.40
68952;BMP180;56000;51.146;17.112;2024-03-06T05:15:54;100690.80;;;1.40
68952;BMP180;56000;51.146;17.112;2024-03-06T05:18:40;100691.40;;;1.32
68952;BMP180;56000;51.146;17.112;2024-03-06T05:21:27;100691.60;;;1.30
68952;BMP180;56000;51.146;17.112;2024-03-06T05:24:13;100689.40;;;1.30
68952;BMP180;56000;51.146;17.112;2024-03-06T05:26:59;100689.60;;;1.30
68952;BMP180;56000;51.146;17.112;2024-03-06T05:29:46;100690.60;;;1.30
68952;BMP180;56000;51.146;17.112;2024-03-06T05:32:32;100692.00;;;1.30
68952;BMP180;56000;51.146;17.112;2024-03-06T05:35:19;100696.40;;;1.30
68952;BMP180;56000;51.146;17.112;2024-03-06T05:38:05;100702.80;;;1.30
68952;BMP180;56000;51.146;17.112;2024-03-06T05:40:52;100698.40;;;1.30
68952;BMP180;56000;51.146;17.112;2024-03-06T05:43:39;100699.20;;;1.40
68952;BMP180;56000;51.146;17.112;2024-03-06T05:46:26;100698.40;;;1.40
68952;BMP180;56000;51.146;17.112;2024-03-06T05:49:12;100695.60;;;1.50
68952;BMP180;56000;51.146;17.112;2024-03-06T05:51:59;100699.00;;;1.50
68952;BMP180;56000;51.146;17.112;2024-03-06T05:54:45;100702.60;;;1.58
68952;BMP180;56000;51.146;17.112;2024-03-06T05:57:32;100700.60;;;1.60
68952;BMP180;56000;51.146;17.112;2024-03-06T06:00:20;100706.40;;;1.70
68952;BMP180;56000;51.146;17.112;2024-03-06T06:02:49;100708.80;;;1.70
68952;BMP180;56000;51.146;17.112;2024-03-06T06:05:18;100715.80;;;1.74
68952;BMP180;56000;51.146;17.112;2024-03-06T06:07:51;100712.60;;;1.80
68952;BMP180;56000;51.146;17.112;2024-03-06T06:10:20;100713.20;;;1.86
68952;BMP180;56000;51.146;17.112;2024-03-06T06:12:50;100711.80;;;1.90
68952;BMP180;56000;51.146;17.112;2024-03-06T06:15:19;100715.40;;;1.92
68952;BMP180;56000;51.146;17.112;2024-03-06T06:17:48;100716.40;;;2.00
68952;BMP180;56000;51.146;17.112;2024-03-06T06:20:16;100719.80;;;2.10
68952;BMP180;56000;51.146;17.112;2024-03-06T06:22:45;100722.80;;;2.10
68952;BMP180;56000;51.146;17.112;2024-03-06T06:25:14;100719.00;;;2.20
68952;BMP180;56000;51.146;17.112;2024-03-06T06:27:44;100725.20;;;2.30
68952;BMP180;56000;51.146;17.112;2024-03-06T06:30:14;100720.60;;;2.40
68952;BMP180;56000;51.146;17.112;2024-03-06T06:32:43;100724.00;;;2.50
68952;BMP180;56000;51.146;17.112;2024-03-06T06:35:15;100726.80;;;2.60
68952;BMP180;56000;51.146;17.112;2024-03-06T06:37:44;100737.40;;;2.70
68952;BMP180;56000;51.146;17.112;2024-03-06T06:40:13;100739.60;;;2.80
68952;BMP180;56000;51.146;17.112;2024-03-06T06:42:45;100742.60;;;2.90
68952;BMP180;56000;51.146;17.112;2024-03-06T06:45:17;100748.00;;;3.00
68952;BMP180;56000;51.146;17.112;2024-03-06T06:47:47;100744.60;;;3.10
68952;BMP180;56000;51.146;17.112;2024-03-06T06:50:16;100750.80;;;3.10
68952;BMP180;56000;51.146;17.112;2024-03-06T06:52:45;100747.80;;;3.20
68952;BMP180;56000;51.146;17.112;2024-03-06T06:55:13;100746.20;;;3.20
68952;BMP180;56000;51.146;17.112;2024-03-06T06:57:42;100745.00;;;3.30
68952;BMP180;56000;51.146;17.112;2024-03-06T07:00:12;100744.60;;;3.34
68952;BMP180;56000;51.146;17.112;2024-03-06T07:02:40;100745.80;;;3.40
68952;BMP180;56000;51.146;17.112;2024-03-06T07:05:10;100744.20;;;3.50
68952;BMP180;56000;51.146;17.112;2024-03-06T07:07:39;100741.40;;;3.66
68952;BMP180;56000;51.146;17.112;2024-03-06T07:10:09;100746.00;;;3.70
68952;BMP180;56000;51.146;17.112;2024-03-06T07:12:38;100746.60;;;3.80
68952;BMP180;56000;51.146;17.112;2024-03-06T07:15:08;100744.60;;;3.90
68952;BMP180;56000;51.146;17.112;2024-03-06T07:17:37;100747.20;;;4.00
68952;BMP180;56000;51.146;17.112;2024-03-06T07:20:08;100753.00;;;4.10
68952;BMP180;56000;51.146;17.112;2024-03-06T07:22:38;100754.00;;;4.28
68952;BMP180;56000;51.146;17.112;2024-03-06T07:25:07;100753.40;;;4.40
68952;BMP180;56000;51.146;17.112;2024-03-06T07:27:35;100760.60;;;4.56
68952;BMP180;56000;51.146;17.112;2024-03-06T07:30:06;100759.40;;;4.68
68952;BMP180;56000;51.146;17.112;2024-03-06T07:32:37;100753.40;;;4.70
68952;BMP180;56000;51.146;17.112;2024-03-06T07:35:07;100760.80;;;4.90
68952;BMP180;56000;51.146;17.112;2024-03-06T07:37:35;100761.00;;;5.00
68952;BMP180;56000;51.146;17.112;2024-03-06T07:40:05;100760.40;;;5.10
68952;BMP180;56000;51.146;17.112;2024-03-06T07:42:34;100759.40;;;5.20
68952;BMP180;56000;51.146;17.112;2024-03-06T07:45:06;100765.00;;;5.30
68952;BMP180;56000;51.146;17.112;2024-03-06T07:47:36;100770.00;;;5.40
68952;BMP180;56000;51.146;17.112;2024-03-06T07:50:08;100769.60;;;5.50
68952;BMP180;56000;51.146;17.112;2024-03-06T07:52:38;100768.20;;;5.60
68952;BMP180;56000;51.146;17.112;2024-03-06T07:55:08;100763.80;;;5.76
68952;BMP180;56000;51.146;17.112;2024-03-06T07:57:36;100766.80;;;5.90
68952;BMP180;56000;51.146;17.112;2024-03-06T08:00:07;100762.00;;;6.10
68952;BMP180;56000;51.146;17.112;2024-03-06T08:02:42;100756.00;;;6.30
68952;BMP180;56000;51.146;17.112;2024-03-06T08:05:14;100765.60;;;6.40
68952;BMP180;56000;51.146;17.112;2024-03-06T08:07:43;100769.20;;;6.60
68952;BMP180;56000;51.146;17.112;2024-03-06T08:10:13;100769.20;;;6.80
68952;BMP180;56000;51.146;17.112;2024-03-06T08:12:42;100767.60;;;7.14
68952;BMP180;56000;51.146;17.112;2024-03-06T08:15:12;100776.20;;;7.58
68952;BMP180;56000;51.146;17.112;2024-03-06T08:17:41;100775.40;;;7.90
68952;BMP180;56000;51.146;17.112;2024-03-06T08:20:12;100773.20;;;8.08
68952;BMP180;56000;51.146;17.112;2024-03-06T08:22:42;100773.00;;;8.32
68952;BMP180;56000;51.146;17.112;2024-03-06T08:25:12;100767.20;;;8.50
68952;BMP180;56000;51.146;17.112;2024-03-06T08:27:41;100766.00;;;8.70
68952;BMP180;56000;51.146;17.112;2024-03-06T08:30:11;100765.80;;;9.00
68952;BMP180;56000;51.146;17.112;2024-03-06T08:32:40;100766.80;;;9.32
68952;BMP180;56000;51.146;17.112;2024-03-06T08:35:12;100771.00;;;9.70
68952;BMP180;56000;51.146;17.112;2024-03-06T08:37:46;100771.60;;;10.00
68952;BMP180;56000;51.146;17.112;2024-03-06T08:40:14;100765.20;;;10.30
68952;BMP180;56000;51.146;17.112;2024-03-06T08:42:43;100764.60;;;10.60
68952;BMP180;56000;51.146;17.112;2024-03-06T08:45:12;100769.00;;;10.90
68952;BMP180;56000;51.146;17.112;2024-03-06T08:47:43;100762.20;;;11.20
68952;BMP180;56000;51.146;17.112;2024-03-06T08:50:12;100764.80;;;11.66
68952;BMP180;56000;51.146;17.112;2024-03-06T08:52:41;100762.40;;;12.08
68952;BMP180;56000;51.146;17.112;2024-03-06T08:55:10;100767.80;;;12.50
68952;BMP180;56000;51.146;17.112;2024-03-06T08:57:39;100767.20;;;12.80
68952;BMP180;56000;51.146;17.112;2024-03-06T09:00:09;100768.80;;;13.16
68952;BMP180;56000;51.146;17.112;2024-03-06T09:02:38;100772.40;;;13.58
68952;BMP180;56000;51.146;17.112;2024-03-06T09:05:08;100765.40;;;13.90
68952;BMP180;56000;51.146;17.112;2024-03-06T09:07:38;100770.60;;;14.20
68952;BMP180;56000;51.146;17.112;2024-03-06T09:10:10;100768.20;;;14.24
68952;BMP180;56000;51.146;17.112;2024-03-06T09:12:39;100776.20;;;13.44
68952;BMP180;56000;51.146;17.112;2024-03-06T09:15:08;100776.40;;;12.64
68952;BMP180;56000;51.146;17.112;2024-03-06T09:17:37;100773.00;;;12.10
68952;BMP180;56000;51.146;17.112;2024-03-06T09:20:08;100769.40;;;11.82
68952;BMP180;56000;51.146;17.112;2024-03-06T09:22:40;100767.40;;;12.90
68952;BMP180;56000;51.146;17.112;2024-03-06T09:25:09;100762.20;;;13.68
68952;BMP180;56000;51.146;17.112;2024-03-06T09:27:38;100762.80;;;14.24
68952;BMP180;56000;51.146;17.112;2024-03-06T09:30:08;100764.20;;;15.14
68952;BMP180;56000;51.146;17.112;2024-03-06T09:32:38;100771.20;;;15.90
68952;BMP180;56000;51.146;17.112;2024-03-06T09:35:08;100768.00;;;16.28
68952;BMP180;56000;51.146;17.112;2024-03-06T09:37:36;100762.00;;;16.74
68952;BMP180;56000;51.146;17.112;2024-03-06T09:40:07;100767.20;;;17.12
68952;BMP180;56000;51.146;17.112;2024-03-06T09:42:36;100769.60;;;17.68
68952;BMP180;56000;51.146;17.112;2024-03-06T09:45:06;100765.40;;;17.50
68952;BMP180;56000;51.146;17.112;2024-03-06T09:47:35;100762.60;;;17.78
68952;BMP180;56000;51.146;17.112;2024-03-06T09:50:06;100765.20;;;17.88
68952;BMP180;56000;51.146;17.112;2024-03-06T09:52:37;100768.00;;;17.92
68952;BMP180;56000;51.146;17.112;2024-03-06T09:55:08;100771.00;;;18.10
68952;BMP180;56000;51.146;17.112;2024-03-06T09:57:37;100771.00;;;18.60
68952;BMP180;56000;51.146;17.112;2024-03-06T10:00:08;100773.40;;;19.20
68952;BMP180;56000;51.146;17.112;2024-03-06T10:02:45;100773.20;;;19.76
68952;BMP180;56000;51.146;17.112;2024-03-06T10:05:23;100780.60;;;19.80
68952;BMP180;56000;51.146;17.112;2024-03-06T10:07:53;100779.60;;;18.96
68952;BMP180;56000;51.146;17.112;2024-03-06T10:10:21;100786.40;;;18.30
68952;BMP180;56000;51.146;17.112;2024-03-06T10:12:50;100794.60;;;17.28
68952;BMP180;56000;51.146;17.112;2024-03-06T10:15:19;100797.80;;;16.06
68952;BMP180;56000;51.146;17.112;2024-03-06T10:17:50;100793.20;;;15.24
68952;BMP180;56000;51.146;17.112;2024-03-06T10:20:22;100796.80;;;14.54
68952;BMP180;56000;51.146;17.112;2024-03-06T10:22:52;100791.00;;;14.16
68952;BMP180;56000;51.146;17.112;2024-03-06T10:25:26;100797.20;;;13.82
68952;BMP180;56000;51.146;17.112;2024-03-06T10:28:06;100801.00;;;13.16
68952;BMP180;56000;51.146;17.112;2024-03-06T10:30:35;100806.80;;;12.58
68952;BMP180;56000;51.146;17.112;2024-03-06T10:33:05;100812.00;;;12.18
68952;BMP180;56000;51.146;17.112;2024-03-06T10:35:34;100811.80;;;11.54
68952;BMP180;56000;51.146;17.112;2024-03-06T10:38:05;100818.80;;;11.04
68952;BMP180;56000;51.146;17.112;2024-03-06T10:40:34;100824.00;;;10.50
68952;BMP180;56000;51.146;17.112;2024-03-06T10:43:04;100829.00;;;10.00
68952;BMP180;56000;51.146;17.112;2024-03-06T10:45:39;100827.80;;;9.60
68952;BMP180;56000;51.146;17.112;2024-03-06T10:48:09;100830.20;;;9.30
68952;BMP180;56000;51.146;17.112;2024-03-06T10:50:40;100829.80;;;9.00
68952;BMP180;56000;51.146;17.112;2024-03-06T10:53:12;100830.00;;;8.80
68952;BMP180;56000;51.146;17.112;2024-03-06T10:55:46;100834.60;;;8.60
68952;BMP180;56000;51.146;17.112;2024-03-06T10:58:14;100837.40;;;8.50
68952;BMP180;56000;51.146;17.112;2024-03-06T11:00:45;100841.20;;;8.34
68952;BMP180;56000;51.146;17.112;2024-03-06T11:03:15;100833.20;;;8.30
68952;BMP180;56000;51.146;17.112;2024-03-06T11:05:45;100843.20;;;8.50
68952;BMP180;56000;51.146;17.112;2024-03-06T11:08:15;100841.40;;;8.70
68952;BMP180;56000;51.146;17.112;2024-03-06T11:10:44;100839.60;;;8.80
68952;BMP180;56000;51.146;17.112;2024-03-06T11:13:22;100836.20;;;8.90
68952;BMP180;56000;51.146;17.112;2024-03-06T11:15:52;100838.20;;;8.78
68952;BMP180;56000;51.146;17.112;2024-03-06T11:18:42;100843.20;;;8.70
68952;BMP180;56000;51.146;17.112;2024-03-06T11:21:30;100839.20;;;8.70
68952;BMP180;56000;51.146;17.112;2024-03-06T11:24:14;100840.60;;;8.82
68952;BMP180;56000;51.146;17.112;2024-03-06T11:27:06;100829.80;;;9.00
68952;BMP180;56000;51.146;17.112;2024-03-06T11:30:06;100828.80;;;9.16
68952;BMP180;56000;51.146;17.112;2024-03-06T11:32:38;100830.60;;;9.10
68952;BMP180;56000;51.146;17.112;2024-03-06T11:35:25;100829.60;;;9.10
68952;BMP180;56000;51.146;17.112;2024-03-06T11:37:55;100830.00;;;9.10
68952;BMP180;56000;51.146;17.112;2024-03-06T11:40:24;100831.40;;;9.20
68952;BMP180;56000;51.146;17.112;2024-03-06T11:42:53;100823.80;;;9.54
68952;BMP180;56000;51.146;17.112;2024-03-06T11:45:22;100823.40;;;9.90
68952;BMP180;56000;51.146;17.112;2024-03-06T11:48:00;100819.80;;;10.10
68952;BMP180;56000;51.146;17.112;2024-03-06T11:50:30;100820.00;;;10.40
68952;BMP180;56000;51.146;17.112;2024-03-06T11:52:59;100812.60;;;10.70
68952;BMP180;56000;51.146;17.112;2024-03-06T11:55:28;100808.00;;;11.16
68952;BMP180;56000;51.146;17.112;2024-03-06T11:57:57;100799.80;;;12.10
68952;BMP180;56000;51.146;17.112;2024-03-06T12:00:25;100798.40;;;13.06
68952;BMP180;56000;51.146;17.112;2024-03-06T12:02:54;100804.00;;;13.12
68952;BMP180;56000;51.146;17.112;2024-03-06T12:05:22;100799.00;;;13.00
68952;BMP180;56000;51.146;17.112;2024-03-06T12:07:51;100800.00;;;12.82
68952;BMP180;56000;51.146;17.112;2024-03-06T12:10:20;100796.80;;;12.30
68952;BMP180;56000;51.146;17.112;2024-03-06T12:12:51;100793.80;;;11.80
68952;BMP180;56000;51.146;17.112;2024-03-06T12:15:20;100795.40;;;11.50
68952;BMP180;56000;51.146;17.112;2024-03-06T12:17:49;100799.80;;;11.20
68952;BMP180;56000;51.146;17.112;2024-03-06T12:20:19;100803.00;;;11.00
68952;BMP180;56000;51.146;17.112;2024-03-06T12:22:50;100803.80;;;10.62
68952;BMP180;56000;51.146;17.112;2024-03-06T12:25:22;100806.00;;;10.46
68952;BMP180;56000;51.146;17.112;2024-03-06T12:27:51;100804.40;;;10.02
68952;BMP180;56000;51.146;17.112;2024-03-06T12:30:20;100802.20;;;9.60
68952;BMP180;56000;51.146;17.112;2024-03-06T12:32:57;100802.80;;;9.30
68952;BMP180;56000;51.146;17.112;2024-03-06T12:35:27;100802.60;;;9.10
68952;BMP180;56000;51.146;17.112;2024-03-06T12:37:56;100802.80;;;9.00
68952;BMP180;56000;51.146;17.112;2024-03-06T12:40:24;100798.20;;;8.90
68952;BMP180;56000;51.146;17.112;2024-03-06T12:42:53;100803.00;;;8.80
68952;BMP180;56000;51.146;17.112;2024-03-06T12:45:22;100805.00;;;8.60
68952;BMP180;56000;51.146;17.112;2024-03-06T12:47:50;100805.80;;;8.48
68952;BMP180;56000;51.146;17.112;2024-03-06T12:50:19;100808.00;;;8.30
68952;BMP180;56000;51.146;17.112;2024-03-06T12:52:48;100808.80;;;8.30
68952;BMP180;56000;51.146;17.112;2024-03-06T12:55:16;100803.80;;;8.20
68952;BMP180;56000;51.146;17.112;2024-03-06T12:57:47;100806.20;;;8.12
68952;BMP180;56000;51.146;17.112;2024-03-06T13:00:18;100811.00;;;8.06
68952;BMP180;56000;51.146;17.112;2024-03-06T13:02:47;100809.00;;;8.00
68952;BMP180;56000;51.146;17.112;2024-03-06T13:05:15;100810.60;;;7.90
68952;BMP180;56000;51.146;17.112;2024-03-06T13:07:44;100807.60;;;7.80
68952;BMP180;56000;51.146;17.112;2024-03-06T13:10:13;100812.40;;;7.70
68952;BMP180;56000;51.146;17.112;2024-03-06T13:12:41;100819.00;;;7.60
68952;BMP180;56000;51.146;17.112;2024-03-06T13:15:10;100816.60;;;7.50
68952;BMP180;56000;51.146;17.112;2024-03-06T13:17:39;100815.80;;;7.50
68952;BMP180;56000;51.146;17.112;2024-03-06T13:20:09;100821.40;;;7.40
68952;BMP180;56000;51.146;17.112;2024-03-06T13:22:39;100820.20;;;7.40
68952;BMP180;56000;51.146;17.112;2024-03-06T13:25:08;100816.60;;;7.40
68952;BMP180;56000;51.146;17.112;2024-03-06T13:27:37;100814.20;;;7.30
68952;BMP180;56000;51.146;17.112;2024-03-06T13:30:08;100817.20;;;7.28
68952;BMP180;56000;51.146;17.112;2024-03-06T13:32:37;100814.00;;;7.30
68952;BMP180;56000;51.146;17.112;2024-03-06T13:35:07;100817.20;;;7.30
68952;BMP180;56000;51.146;17.112;2024-03-06T13:37:40;100815.60;;;7.30
68952;BMP180;56000;51.146;17.112;2024-03-06T13:40:11;100815.80;;;7.30
68952;BMP180;56000;51.146;17.112;2024-03-06T13:42:41;100819.40;;;7.30
68952;BMP180;56000;51.146;17.112;2024-03-06T13:45:10;100824.60;;;7.28
68952;BMP180;56000;51.146;17.112;2024-03-06T13:47:40;100817.20;;;7.30
68952;BMP180;56000;51.146;17.112;2024-03-06T13:50:10;100814.60;;;7.30
68952;BMP180;56000;51.146;17.112;2024-03-06T13:52:39;100812.60;;;7.30
68952;BMP180;56000;51.146;17.112;2024-03-06T13:55:09;100808.00;;;7.20
68952;BMP180;56000;51.146;17.112;2024-03-06T13:57:38;100807.60;;;7.20
68952;BMP180;56000;51.146;17.112;2024-03-06T14:00:08;100806.60;;;7.20
68952;BMP180;56000;51.146;17.112;2024-03-06T14:02:40;100808.80;;;7.10
68952;BMP180;56000;51.146;17.112;2024-03-06T14:05:10;100806.00;;;7.10
68952;BMP180;56000;51.146;17.112;2024-03-06T14:07:39;100807.80;;;7.00
68952;BMP180;56000;51.146;17.112;2024-03-06T14:10:09;100809.00;;;7.00
68952;BMP180;56000;51.146;17.112;2024-03-06T14:12:39;100815.80;;;6.90
68952;BMP180;56000;51.146;17.112;2024-03-06T14:15:09;100817.40;;;6.82